sensor_id;sensor_type;location;lat;lon;timestamp;P1;durP1;ratioP1;P2;durP2;ratioP2
23728;SDS011;12045;60.214;24.724;2023-01-06T00:01:11;4.03;;;1.50;;
23728;SDS011;12045;60.214;24.724;2023-01-06T00:03:39;4.23;;;1.40;;
23728;SDS011;12045;60.214;24.724;2023-01-06T00:06:09;4.00;;;1.60;;
23728;SDS011;12045;60.214;24.724;2023-01-06T00:08:37;2.63;;;1.57;;
23728;SDS011;12045;60.214;24.724;2023-01-06T00:11:06;4.10;;;1.43;;
23728;SDS011;12045;60.214;24.724;2023-01-06T00:13:34;4.00;;;1.30;;
23728;SDS011;12045;60.214;24.724;2023-01-06T00:16:03;4.50;;;1.40;;
23728;SDS011;12045;60.214;24.724;2023-01-06T00:18:31;2.27;;;0.90;;
23728;SDS011;12045;60.214;24.724;2023-01-06T00:20:58;3.50;;;1.50;;
23728;SDS011;12045;60.214;24.724;2023-01-06T00:23:26;3.17;;;1.60;;
23728;SDS011;12045;60.214;24.724;2023-01-06T00:25:54;4.00;;;1.10;;
23728;SDS011;12045;60.214;24.724;2023-01-06T00:28:22;2.17;;;1.17;;
23728;SDS011;12045;60.214;24.724;2023-01-06T00:30:50;2.10;;;1.20;;
23728;SDS011;12045;60.214;24.724;2023-01-06T00:33:17;3.20;;;1.20;;
23728;SDS011;12045;60.214;24.724;2023-01-06T00:35:45;4.10;;;1.53;;
23728;SDS011;12045;60.214;24.724;2023-01-06T00:38:13;2.87;;;1.30;;
23728;SDS011;12045;60.214;24.724;2023-01-06T00:40:41;1.97;;;0.87;;
23728;SDS011;12045;60.214;24.724;2023-01-06T00:43:08;3.93;;;1.30;;
23728;SDS011;12045;60.214;24.724;2023-01-06T00:45:36;2.23;;;1.40;;
23728;SDS011;12045;60.214;24.724;2023-01-06T00:48:04;2.00;;;0.90;;
23728;SDS011;12045;60.214;24.724;2023-01-06T00:50:31;2.17;;;1.07;;
23728;SDS011;12045;60.214;24.724;2023-01-06T00:52:59;2.53;;;1.17;;
23728;SDS011;12045;60.214;24.724;2023-01-06T00:55:27;2.10;;;1.00;;
23728;SDS011;12045;60.214;24.724;2023-01-06T00:57:55;3.70;;;1.17;;
23728;SDS011;12045;60.214;24.724;2023-01-06T01:00:23;1.77;;;1.00;;
23728;SDS011;12045;60.214;24.724;2023-01-06T01:02:51;3.33;;;1.50;;
23728;SDS011;12045;60.214;24.724;2023-01-06T01:05:19;1.43;;;1.00;;
23728;SDS011;12045;60.214;24.724;2023-01-06T01:07:46;2.37;;;1.20;;
23728;SDS011;12045;60.214;24.724;2023-01-06T01:10:14;2.43;;;1.17;;
23728;SDS011;12045;60.214;24.724;2023-01-06T01:12:42;1.10;;;0.90;;
23728;SDS011;12045;60.214;24.724;2023-01-06T01:15:10;3.37;;;0.93;;
23728;SDS011;12045;60.214;24.724;2023-01-06T01:17:37;4.40;;;1.23;;
23728;SDS011;12045;60.214;24.724;2023-01-06T01:20:06;3.43;;;1.30;;
23728;SDS011;12045;60.214;24.724;2023-01-06T01:22:34;4.83;;;1.33;;
23728;SDS011;12045;60.214;24.724;2023-01-06T01:25:02;1.27;;;0.93;;
23728;SDS011;12045;60.214;24.724;2023-01-06T01:27:30;2.57;;;1.00;;
23728;SDS011;12045;60.214;24.724;2023-01-06T01:29:58;6.50;;;1.13;;
23728;SDS011;12045;60.214;24.724;2023-01-06T01:32:25;1.57;;;0.90;;
23728;SDS011;12045;60.214;24.724;2023-01-06T01:34:53;5.43;;;0.83;;
23728;SDS011;12045;60.214;24.724;2023-01-06T01:37:21;1.57;;;1.00;;
23728;SDS011;12045;60.214;24.724;2023-01-06T01:39:49;1.83;;;0.80;;
23728;SDS011;12045;60.214;24.724;2023-01-06T01:42:17;1.97;;;0.90;;
23728;SDS011;12045;60.214;24.724;2023-01-06T01:45:05;1.53;;;0.87;;
23728;SDS011;12045;60.214;24.724;2023-01-06T01:47:34;2.10;;;0.77;;
23728;SDS011;12045;60.214;24.724;2023-01-06T01:50:07;5.53;;;1.00;;
23728;SDS011;12045;60.214;24.724;2023-01-06T01:52:36;1.77;;;1.20;;
23728;SDS011;12045;60.214;24.724;2023-01-06T01:55:05;4.40;;;0.80;;
23728;SDS011;12045;60.214;24.724;2023-01-06T01:57:34;1.43;;;0.80;;
23728;SDS011;12045;60.214;24.724;2023-01-06T02:00:04;3.67;;;1.33;;
23728;SDS011;12045;60.214;24.724;2023-01-06T02:02:32;2.60;;;0.87;;
23728;SDS011;12045;60.214;24.724;2023-01-06T02:05:00;3.43;;;0.90;;
23728;SDS011;12045;60.214;24.724;2023-01-06T02:07:28;5.23;;;1.00;;
23728;SDS011;12045;60.214;24.724;2023-01-06T02:12:30;4.57;;;1.27;;
23728;SDS011;12045;60.214;24.724;2023-01-06T02:14:58;2.97;;;0.90;;
23728;SDS011;12045;60.214;24.724;2023-01-06T02:17:33;2.83;;;1.17;;
23728;SDS011;12045;60.214;24.724;2023-01-06T02:33:00;2.37;;;0.90;;
23728;SDS011;12045;60.214;24.724;2023-01-06T02:41:07;2.47;;;1.23;;
23728;SDS011;12045;60.214;24.724;2023-01-06T02:51:29;1.13;;;0.90;;
23728;SDS011;12045;60.214;24.724;2023-01-06T02:54:47;1.07;;;0.93;;
23728;SDS011;12045;60.214;24.724;2023-01-06T02:56:49;2.50;;;1.20;;
23728;SDS011;12045;60.214;24.724;2023-01-06T02:59:28;1.47;;;0.80;;
23728;SDS011;12045;60.214;24.724;2023-01-06T03:01:58;2.60;;;0.80;;
23728;SDS011;12045;60.214;24.724;2023-01-06T03:04:30;4.70;;;1.20;;
23728;SDS011;12045;60.214;24.724;2023-01-06T03:06:58;3.53;;;0.90;;
23728;SDS011;12045;60.214;24.724;2023-01-06T03:09:32;3.13;;;1.10;;
23728;SDS011;12045;60.214;24.724;2023-01-06T03:12:01;1.63;;;0.77;;
23728;SDS011;12045;60.214;24.724;2023-01-06T03:14:34;2.93;;;0.90;;
23728;SDS011;12045;60.214;24.724;2023-01-06T03:17:03;2.43;;;0.93;;
23728;SDS011;12045;60.214;24.724;2023-01-06T03:19:31;3.60;;;1.20;;
23728;SDS011;12045;60.214;24.724;2023-01-06T03:21:59;4.87;;;0.83;;
23728;SDS011;12045;60.214;24.724;2023-01-06T03:24:28;3.60;;;1.00;;
23728;SDS011;12045;60.214;24.724;2023-01-06T03:26:56;1.83;;;0.67;;
23728;SDS011;12045;60.214;24.724;2023-01-06T03:29:23;1.10;;;0.80;;
23728;SDS011;12045;60.214;24.724;2023-01-06T03:32:02;2.87;;;0.90;;
23728;SDS011;12045;60.214;24.724;2023-01-06T03:50:49;3.53;;;1.13;;
23728;SDS011;12045;60.214;24.724;2023-01-06T03:55:52;3.00;;;1.00;;
23728;SDS011;12045;60.214;24.724;2023-01-06T03:58:21;3.13;;;0.87;;
23728;SDS011;12045;60.214;24.724;2023-01-06T04:00:49;0.83;;;0.70;;
23728;SDS011;12045;60.214;24.724;2023-01-06T04:03:18;1.37;;;0.80;;
23728;SDS011;12045;60.214;24.724;2023-01-06T04:05:49;2.67;;;1.10;;
23728;SDS011;12045;60.214;24.724;2023-01-06T04:08:17;3.77;;;1.10;;
23728;SDS011;12045;60.214;24.724;2023-01-06T04:10:45;1.40;;;0.80;;
23728;SDS011;12045;60.214;24.724;2023-01-06T04:13:12;2.40;;;1.03;;
23728;SDS011;12045;60.214;24.724;2023-01-06T04:15:40;2.83;;;1.00;;
23728;SDS011;12045;60.214;24.724;2023-01-06T04:18:08;4.60;;;1.40;;
23728;SDS011;12045;60.214;24.724;2023-01-06T04:20:35;3.50;;;1.13;;
23728;SDS011;12045;60.214;24.724;2023-01-06T04:23:03;3.03;;;1.30;;
23728;SDS011;12045;60.214;24.724;2023-01-06T04:25:31;5.20;;;1.10;;
23728;SDS011;12045;60.214;24.724;2023-01-06T04:27:59;2.70;;;0.80;;
23728;SDS011;12045;60.214;24.724;2023-01-06T04:30:26;4.93;;;1.10;;
23728;SDS011;12045;60.214;24.724;2023-01-06T04:32:54;2.83;;;1.30;;
23728;SDS011;12045;60.214;24.724;2023-01-06T04:35:22;1.30;;;1.00;;
23728;SDS011;12045;60.214;24.724;2023-01-06T04:37:49;2.37;;;1.00;;
23728;SDS011;12045;60.214;24.724;2023-01-06T04:40:17;2.90;;;1.10;;
23728;SDS011;12045;60.214;24.724;2023-01-06T04:42:45;2.20;;;1.13;;
23728;SDS011;12045;60.214;24.724;2023-01-06T04:45:32;1.17;;;0.80;;
23728;SDS011;12045;60.214;24.724;2023-01-06T04:47:59;2.53;;;0.93;;
23728;SDS011;12045;60.214;24.724;2023-01-06T04:50:27;2.03;;;1.10;;
23728;SDS011;12045;60.214;24.724;2023-01-06T04:52:55;6.40;;;1.20;;
23728;SDS011;12045;60.214;24.724;2023-01-06T04:55:23;1.73;;;1.10;;
23728;SDS011;12045;60.214;24.724;2023-01-06T04:57:50;2.30;;;0.80;;
23728;SDS011;12045;60.214;24.724;2023-01-06T05:00:18;2.17;;;0.80;;
23728;SDS011;12045;60.214;24.724;2023-01-06T05:02:46;2.13;;;0.97;;
23728;SDS011;12045;60.214;24.724;2023-01-06T05:05:14;5.00;;;1.20;;
23728;SDS011;12045;60.214;24.724;2023-01-06T05:07:42;4.37;;;1.00;;
23728;SDS011;12045;60.214;24.724;2023-01-06T05:10:10;1.00;;;0.90;;
23728;SDS011;12045;60.214;24.724;2023-01-06T05:12:38;3.43;;;1.30;;
23728;SDS011;12045;60.214;24.724;2023-01-06T05:15:06;3.33;;;1.10;;
23728;SDS011;12045;60.214;24.724;2023-01-06T05:17:34;1.80;;;1.13;;
23728;SDS011;12045;60.214;24.724;2023-01-06T05:20:01;1.93;;;0.70;;
23728;SDS011;12045;60.214;24.724;2023-01-06T05:22:29;1.10;;;0.90;;
23728;SDS011;12045;60.214;24.724;2023-01-06T05:24:57;2.93;;;0.97;;
23728;SDS011;12045;60.214;24.724;2023-01-06T05:27:24;2.17;;;1.20;;
23728;SDS011;12045;60.214;24.724;2023-01-06T05:29:52;1.97;;;1.13;;
23728;SDS011;12045;60.214;24.724;2023-01-06T05:32:20;2.23;;;1.10;;
23728;SDS011;12045;60.214;24.724;2023-01-06T05:34:47;3.80;;;1.20;;
23728;SDS011;12045;60.214;24.724;2023-01-06T05:37:15;3.97;;;1.00;;
23728;SDS011;12045;60.214;24.724;2023-01-06T05:39:43;1.10;;;0.93;;
23728;SDS011;12045;60.214;24.724;2023-01-06T05:42:11;3.77;;;1.33;;
23728;SDS011;12045;60.214;24.724;2023-01-06T05:44:38;3.80;;;0.90;;
23728;SDS011;12045;60.214;24.724;2023-01-06T05:47:06;4.23;;;1.27;;
23728;SDS011;12045;60.214;24.724;2023-01-06T05:49:34;2.50;;;1.10;;
23728;SDS011;12045;60.214;24.724;2023-01-06T05:52:02;4.80;;;1.07;;
23728;SDS011;12045;60.214;24.724;2023-01-06T05:54:30;3.47;;;1.17;;
23728;SDS011;12045;60.214;24.724;2023-01-06T05:56:57;1.57;;;1.13;;
23728;SDS011;12045;60.214;24.724;2023-01-06T05:59:25;3.50;;;1.20;;
23728;SDS011;12045;60.214;24.724;2023-01-06T06:01:52;1.97;;;1.00;;
23728;SDS011;12045;60.214;24.724;2023-01-06T06:04:20;3.90;;;1.17;;
23728;SDS011;12045;60.214;24.724;2023-01-06T06:06:48;2.70;;;1.40;;
23728;SDS011;12045;60.214;24.724;2023-01-06T06:09:16;1.10;;;1.00;;
23728;SDS011;12045;60.214;24.724;2023-01-06T06:11:43;3.40;;;1.10;;
23728;SDS011;12045;60.214;24.724;2023-01-06T06:14:11;3.27;;;1.40;;
23728;SDS011;12045;60.214;24.724;2023-01-06T06:16:41;1.23;;;1.00;;
23728;SDS011;12045;60.214;24.724;2023-01-06T06:19:10;3.97;;;1.03;;
23728;SDS011;12045;60.214;24.724;2023-01-06T06:21:38;1.23;;;1.00;;
23728;SDS011;12045;60.214;24.724;2023-01-06T06:24:05;1.83;;;1.27;;
23728;SDS011;12045;60.214;24.724;2023-01-06T06:26:35;7.20;;;1.67;;
23728;SDS011;12045;60.214;24.724;2023-01-06T06:29:04;3.13;;;1.23;;
23728;SDS011;12045;60.214;24.724;2023-01-06T06:31:31;1.97;;;1.50;;
23728;SDS011;12045;60.214;24.724;2023-01-06T06:34:00;1.50;;;0.93;;
23728;SDS011;12045;60.214;24.724;2023-01-06T06:36:28;4.50;;;1.37;;
23728;SDS011;12045;60.214;24.724;2023-01-06T06:38:57;2.90;;;1.20;;
23728;SDS011;12045;60.214;24.724;2023-01-06T06:41:25;2.50;;;1.07;;
23728;SDS011;12045;60.214;24.724;2023-01-06T06:43:52;3.33;;;1.00;;
23728;SDS011;12045;60.214;24.724;2023-01-06T06:46:20;4.60;;;1.27;;
23728;SDS011;12045;60.214;24.724;2023-01-06T06:48:48;7.57;;;1.20;;
23728;SDS011;12045;60.214;24.724;2023-01-06T06:51:17;3.77;;;1.17;;
23728;SDS011;12045;60.214;24.724;2023-01-06T06:53:45;3.90;;;1.10;;
23728;SDS011;12045;60.214;24.724;2023-01-06T06:56:14;0.87;;;0.87;;
23728;SDS011;12045;60.214;24.724;2023-01-06T06:58:42;2.43;;;1.20;;
23728;SDS011;12045;60.214;24.724;2023-01-06T07:01:12;2.10;;;0.90;;
23728;SDS011;12045;60.214;24.724;2023-01-06T07:03:40;2.10;;;1.27;;
23728;SDS011;12045;60.214;24.724;2023-01-06T07:06:09;2.60;;;1.37;;
23728;SDS011;12045;60.214;24.724;2023-01-06T07:08:37;3.27;;;1.77;;
23728;SDS011;12045;60.214;24.724;2023-01-06T07:11:05;4.33;;;1.50;;
23728;SDS011;12045;60.214;24.724;2023-01-06T07:13:33;1.37;;;1.10;;
23728;SDS011;12045;60.214;24.724;2023-01-06T07:16:00;2.90;;;1.70;;
23728;SDS011;12045;60.214;24.724;2023-01-06T07:18:28;3.13;;;1.63;;
23728;SDS011;12045;60.214;24.724;2023-01-06T07:20:56;3.57;;;1.57;;
23728;SDS011;12045;60.214;24.724;2023-01-06T07:23:24;1.77;;;1.27;;
23728;SDS011;12045;60.214;24.724;2023-01-06T07:25:52;2.17;;;1.40;;
23728;SDS011;12045;60.214;24.724;2023-01-06T07:28:20;1.77;;;1.30;;
23728;SDS011;12045;60.214;24.724;2023-01-06T07:30:47;1.20;;;1.00;;
23728;SDS011;12045;60.214;24.724;2023-01-06T07:33:15;5.40;;;1.40;;
23728;SDS011;12045;60.214;24.724;2023-01-06T07:35:43;2.63;;;1.43;;
23728;SDS011;12045;60.214;24.724;2023-01-06T07:38:11;5.93;;;1.70;;
23728;SDS011;12045;60.214;24.724;2023-01-06T07:40:39;3.57;;;1.47;;
23728;SDS011;12045;60.214;24.724;2023-01-06T07:43:07;3.10;;;1.40;;
23728;SDS011;12045;60.214;24.724;2023-01-06T07:45:36;6.33;;;2.30;;
23728;SDS011;12045;60.214;24.724;2023-01-06T07:48:04;4.77;;;2.27;;
23728;SDS011;12045;60.214;24.724;2023-01-06T07:50:32;2.73;;;1.93;;
23728;SDS011;12045;60.214;24.724;2023-01-06T07:53:00;3.63;;;2.27;;
23728;SDS011;12045;60.214;24.724;2023-01-06T07:55:28;6.13;;;3.73;;
23728;SDS011;12045;60.214;24.724;2023-01-06T07:57:56;3.70;;;2.20;;
23728;SDS011;12045;60.214;24.724;2023-01-06T08:00:27;3.07;;;1.70;;
23728;SDS011;12045;60.214;24.724;2023-01-06T08:02:54;5.87;;;1.67;;
23728;SDS011;12045;60.214;24.724;2023-01-06T08:05:22;5.27;;;1.87;;
23728;SDS011;12045;60.214;24.724;2023-01-06T08:07:50;4.97;;;2.27;;
23728;SDS011;12045;60.214;24.724;2023-01-06T08:10:18;5.47;;;2.17;;
23728;SDS011;12045;60.214;24.724;2023-01-06T08:12:46;2.17;;;1.83;;
23728;SDS011;12045;60.214;24.724;2023-01-06T08:15:13;3.73;;;2.00;;
23728;SDS011;12045;60.214;24.724;2023-01-06T08:17:41;4.93;;;1.70;;
23728;SDS011;12045;60.214;24.724;2023-01-06T08:20:09;6.43;;;2.47;;
23728;SDS011;12045;60.214;24.724;2023-01-06T08:22:37;2.20;;;1.87;;
23728;SDS011;12045;60.214;24.724;2023-01-06T08:25:04;2.33;;;2.13;;
23728;SDS011;12045;60.214;24.724;2023-01-06T08:27:32;5.47;;;2.77;;
23728;SDS011;12045;60.214;24.724;2023-01-06T08:30:00;5.03;;;2.20;;
23728;SDS011;12045;60.214;24.724;2023-01-06T08:32:27;7.73;;;2.50;;
23728;SDS011;12045;60.214;24.724;2023-01-06T08:34:55;4.70;;;2.43;;
23728;SDS011;12045;60.214;24.724;2023-01-06T08:37:23;6.40;;;2.30;;
23728;SDS011;12045;60.214;24.724;2023-01-06T08:39:51;4.23;;;2.10;;
23728;SDS011;12045;60.214;24.724;2023-01-06T08:42:18;10.80;;;4.60;;
23728;SDS011;12045;60.214;24.724;2023-01-06T08:44:46;7.77;;;3.40;;
23728;SDS011;12045;60.214;24.724;2023-01-06T08:47:14;14.47;;;5.80;;
23728;SDS011;12045;60.214;24.724;2023-01-06T08:49:42;6.87;;;2.63;;
23728;SDS011;12045;60.214;24.724;2023-01-06T08:52:09;3.83;;;2.30;;
23728;SDS011;12045;60.214;24.724;2023-01-06T08:54:37;6.57;;;2.80;;
23728;SDS011;12045;60.214;24.724;2023-01-06T08:57:05;7.03;;;2.70;;
23728;SDS011;12045;60.214;24.724;2023-01-06T08:59:34;8.07;;;2.70;;
23728;SDS011;12045;60.214;24.724;2023-01-06T09:02:02;6.40;;;2.60;;
23728;SDS011;12045;60.214;24.724;2023-01-06T09:04:30;4.97;;;2.83;;
23728;SDS011;12045;60.214;24.724;2023-01-06T09:06:58;4.17;;;2.10;;
23728;SDS011;12045;60.214;24.724;2023-01-06T09:09:25;5.97;;;1.97;;
23728;SDS011;12045;60.214;24.724;2023-01-06T09:11:53;8.30;;;2.63;;
23728;SDS011;12045;60.214;24.724;2023-01-06T09:14:21;9.17;;;3.00;;
23728;SDS011;12045;60.214;24.724;2023-01-06T09:16:49;6.57;;;2.17;;
23728;SDS011;12045;60.214;24.724;2023-01-06T09:19:16;5.53;;;2.30;;
23728;SDS011;12045;60.214;24.724;2023-01-06T09:21:46;9.90;;;2.03;;
23728;SDS011;12045;60.214;24.724;2023-01-06T09:24:13;6.70;;;2.20;;
23728;SDS011;12045;60.214;24.724;2023-01-06T09:26:41;4.33;;;1.93;;
23728;SDS011;12045;60.214;24.724;2023-01-06T09:29:09;6.70;;;3.47;;
23728;SDS011;12045;60.214;24.724;2023-01-06T09:31:37;13.40;;;5.83;;
23728;SDS011;12045;60.214;24.724;2023-01-06T09:34:05;9.33;;;4.00;;
23728;SDS011;12045;60.214;24.724;2023-01-06T09:36:33;9.33;;;3.60;;
23728;SDS011;12045;60.214;24.724;2023-01-06T09:39:01;10.33;;;5.00;;
23728;SDS011;12045;60.214;24.724;2023-01-06T09:41:32;5.30;;;3.43;;
23728;SDS011;12045;60.214;24.724;2023-01-06T09:46:31;5.23;;;3.60;;
23728;SDS011;12045;60.214;24.724;2023-01-06T09:51:34;6.83;;;3.93;;
23728;SDS011;12045;60.214;24.724;2023-01-06T09:56:36;6.50;;;3.70;;
23728;SDS011;12045;60.214;24.724;2023-01-06T09:59:07;5.70;;;3.23;;
23728;SDS011;12045;60.214;24.724;2023-01-06T10:01:36;8.37;;;3.13;;
23728;SDS011;12045;60.214;24.724;2023-01-06T10:04:08;7.70;;;3.73;;
23728;SDS011;12045;60.214;24.724;2023-01-06T10:06:41;8.60;;;4.10;;
23728;SDS011;12045;60.214;24.724;2023-01-06T10:11:48;9.63;;;3.37;;
23728;SDS011;12045;60.214;24.724;2023-01-06T10:25:10;6.37;;;2.60;;
23728;SDS011;12045;60.214;24.724;2023-01-06T10:27:40;5.50;;;2.50;;
23728;SDS011;12045;60.214;24.724;2023-01-06T10:30:18;5.20;;;2.40;;
23728;SDS011;12045;60.214;24.724;2023-01-06T10:32:47;5.97;;;2.97;;
23728;SDS011;12045;60.214;24.724;2023-01-06T10:35:16;4.40;;;2.33;;
23728;SDS011;12045;60.214;24.724;2023-01-06T10:37:45;6.50;;;2.70;;
23728;SDS011;12045;60.214;24.724;2023-01-06T10:40:19;4.93;;;2.83;;
23728;SDS011;12045;60.214;24.724;2023-01-06T10:42:52;6.23;;;2.73;;
23728;SDS011;12045;60.214;24.724;2023-01-06T10:45:24;8.83;;;3.07;;
23728;SDS011;12045;60.214;24.724;2023-01-06T10:47:52;6.60;;;2.63;;
23728;SDS011;12045;60.214;24.724;2023-01-06T10:50:20;8.97;;;3.20;;
23728;SDS011;12045;60.214;24.724;2023-01-06T10:52:48;6.93;;;2.83;;
23728;SDS011;12045;60.214;24.724;2023-01-06T10:57:52;3.83;;;2.33;;
23728;SDS011;12045;60.214;24.724;2023-01-06T11:00:22;5.60;;;2.67;;
23728;SDS011;12045;60.214;24.724;2023-01-06T11:02:51;3.67;;;2.50;;
23728;SDS011;12045;60.214;24.724;2023-01-06T11:05:30;4.13;;;2.27;;
23728;SDS011;12045;60.214;24.724;2023-01-06T11:08:06;5.70;;;2.93;;
23728;SDS011;12045;60.214;24.724;2023-01-06T11:10:38;3.50;;;2.53;;
23728;SDS011;12045;60.214;24.724;2023-01-06T11:13:16;9.13;;;4.27;;
23728;SDS011;12045;60.214;24.724;2023-01-06T11:15:48;8.97;;;5.47;;
23728;SDS011;12045;60.214;24.724;2023-01-06T11:18:17;9.93;;;4.63;;
23728;SDS011;12045;60.214;24.724;2023-01-06T11:20:50;14.40;;;4.93;;
23728;SDS011;12045;60.214;24.724;2023-01-06T11:23:27;8.70;;;4.07;;
23728;SDS011;12045;60.214;24.724;2023-01-06T11:28:29;7.13;;;2.87;;
23728;SDS011;12045;60.214;24.724;2023-01-06T11:31:01;7.67;;;3.60;;
23728;SDS011;12045;60.214;24.724;2023-01-06T11:33:30;8.20;;;3.77;;
23728;SDS011;12045;60.214;24.724;2023-01-06T11:36:04;8.67;;;3.30;;
23728;SDS011;12045;60.214;24.724;2023-01-06T11:38:38;8.50;;;3.57;;
23728;SDS011;12045;60.214;24.724;2023-01-06T11:41:07;8.17;;;3.33;;
23728;SDS011;12045;60.214;24.724;2023-01-06T11:43:35;7.97;;;3.43;;
23728;SDS011;12045;60.214;24.724;2023-01-06T11:46:05;8.57;;;4.37;;
23728;SDS011;12045;60.214;24.724;2023-01-06T11:48:35;5.23;;;3.07;;
23728;SDS011;12045;60.214;24.724;2023-01-06T11:51:04;7.27;;;3.10;;
23728;SDS011;12045;60.214;24.724;2023-01-06T11:53:33;9.07;;;4.67;;
23728;SDS011;12045;60.214;24.724;2023-01-06T11:56:03;11.57;;;5.17;;
23728;SDS011;12045;60.214;24.724;2023-01-06T11:58:36;13.23;;;5.80;;
23728;SDS011;12045;60.214;24.724;2023-01-06T12:01:11;10.47;;;7.50;;
23728;SDS011;12045;60.214;24.724;2023-01-06T12:03:44;11.20;;;5.73;;
23728;SDS011;12045;60.214;24.724;2023-01-06T12:06:31;8.57;;;3.93;;
23728;SDS011;12045;60.214;24.724;2023-01-06T12:11:48;10.00;;;4.70;;
23728;SDS011;12045;60.214;24.724;2023-01-06T12:14:23;11.23;;;4.90;;
23728;SDS011;12045;60.214;24.724;2023-01-06T12:17:03;8.47;;;4.77;;
23728;SDS011;12045;60.214;24.724;2023-01-06T12:19:46;8.07;;;4.03;;
23728;SDS011;12045;60.214;24.724;2023-01-06T12:22:28;8.60;;;3.80;;
23728;SDS011;12045;60.214;24.724;2023-01-06T12:24:58;9.17;;;3.37;;
23728;SDS011;12045;60.214;24.724;2023-01-06T12:27:29;8.20;;;3.83;;
23728;SDS011;12045;60.214;24.724;2023-01-06T12:29:59;7.40;;;3.83;;
23728;SDS011;12045;60.214;24.724;2023-01-06T12:32:28;8.03;;;4.90;;
23728;SDS011;12045;60.214;24.724;2023-01-06T12:34:59;24.53;;;12.40;;
23728;SDS011;12045;60.214;24.724;2023-01-06T12:37:31;15.27;;;8.37;;
23728;SDS011;12045;60.214;24.724;2023-01-06T12:40:19;5.60;;;3.27;;
23728;SDS011;12045;60.214;24.724;2023-01-06T12:43:03;7.33;;;4.17;;
23728;SDS011;12045;60.214;24.724;2023-01-06T12:48:16;4.00;;;2.50;;
23728;SDS011;12045;60.214;24.724;2023-01-06T12:50:50;10.77;;;4.43;;
23728;SDS011;12045;60.214;24.724;2023-01-06T12:53:23;15.37;;;4.57;;
23728;SDS011;12045;60.214;24.724;2023-01-06T12:58:42;7.30;;;2.47;;
23728;SDS011;12045;60.214;24.724;2023-01-06T13:06:30;5.23;;;2.47;;
23728;SDS011;12045;60.214;24.724;2023-01-06T13:09:03;4.47;;;2.30;;
23728;SDS011;12045;60.214;24.724;2023-01-06T13:17:22;11.20;;;4.50;;
23728;SDS011;12045;60.214;24.724;2023-01-06T13:19:52;14.90;;;6.13;;
23728;SDS011;12045;60.214;24.724;2023-01-06T13:22:23;16.67;;;7.20;;
23728;SDS011;12045;60.214;24.724;2023-01-06T13:25:06;25.37;;;10.83;;
23728;SDS011;12045;60.214;24.724;2023-01-06T13:30:16;12.03;;;7.33;;
23728;SDS011;12045;60.214;24.724;2023-01-06T13:35:25;16.20;;;6.93;;
23728;SDS011;12045;60.214;24.724;2023-01-06T13:40:58;11.17;;;4.83;;
23728;SDS011;12045;60.214;24.724;2023-01-06T13:43:30;23.33;;;9.77;;
23728;SDS011;12045;60.214;24.724;2023-01-06T13:45:59;36.87;;;19.03;;
23728;SDS011;12045;60.214;24.724;2023-01-06T13:48:29;18.90;;;9.30;;
23728;SDS011;12045;60.214;24.724;2023-01-06T13:51:01;10.07;;;4.37;;
23728;SDS011;12045;60.214;24.724;2023-01-06T13:53:35;4.13;;;2.40;;
23728;SDS011;12045;60.214;24.724;2023-01-06T13:58:44;7.57;;;2.90;;
23728;SDS011;12045;60.214;24.724;2023-01-06T14:01:29;6.47;;;1.97;;
23728;SDS011;12045;60.214;24.724;2023-01-06T14:06:43;4.83;;;1.90;;
23728;SDS011;12045;60.214;24.724;2023-01-06T14:09:15;5.27;;;2.20;;
23728;SDS011;12045;60.214;24.724;2023-01-06T14:11:44;5.50;;;2.50;;
23728;SDS011;12045;60.214;24.724;2023-01-06T14:14:24;4.57;;;2.10;;
23728;SDS011;12045;60.214;24.724;2023-01-06T14:16:55;6.27;;;2.40;;
23728;SDS011;12045;60.214;24.724;2023-01-06T14:21:54;6.47;;;3.33;;
23728;SDS011;12045;60.214;24.724;2023-01-06T14:24:39;12.03;;;4.97;;
23728;SDS011;12045;60.214;24.724;2023-01-06T14:27:09;4.97;;;2.67;;
23728;SDS011;12045;60.214;24.724;2023-01-06T14:34:43;11.93;;;3.70;;
23728;SDS011;12045;60.214;24.724;2023-01-06T14:37:16;6.37;;;3.00;;
23728;SDS011;12045;60.214;24.724;2023-01-06T14:39:48;5.67;;;3.30;;
23728;SDS011;12045;60.214;24.724;2023-01-06T14:44:48;10.97;;;4.80;;
23728;SDS011;12045;60.214;24.724;2023-01-06T14:47:28;7.37;;;3.93;;
23728;SDS011;12045;60.214;24.724;2023-01-06T14:49:57;6.40;;;2.67;;
23728;SDS011;12045;60.214;24.724;2023-01-06T14:52:36;3.97;;;2.23;;
23728;SDS011;12045;60.214;24.724;2023-01-06T14:55:07;1.63;;;1.53;;
23728;SDS011;12045;60.214;24.724;2023-01-06T14:57:36;5.73;;;2.73;;
23728;SDS011;12045;60.214;24.724;2023-01-06T15:02:45;3.27;;;2.20;;
23728;SDS011;12045;60.214;24.724;2023-01-06T15:05:19;4.13;;;2.20;;
23728;SDS011;12045;60.214;24.724;2023-01-06T15:08:00;6.20;;;2.60;;
23728;SDS011;12045;60.214;24.724;2023-01-06T15:10:30;8.67;;;3.23;;
23728;SDS011;12045;60.214;24.724;2023-01-06T15:13:00;5.73;;;2.30;;
23728;SDS011;12045;60.214;24.724;2023-01-06T15:15:29;5.00;;;2.43;;
23728;SDS011;12045;60.214;24.724;2023-01-06T15:17:57;3.07;;;1.63;;
23728;SDS011;12045;60.214;24.724;2023-01-06T15:20:27;4.40;;;2.30;;
23728;SDS011;12045;60.214;24.724;2023-01-06T15:22:56;3.13;;;2.20;;
23728;SDS011;12045;60.214;24.724;2023-01-06T15:25:26;5.60;;;2.30;;
23728;SDS011;12045;60.214;24.724;2023-01-06T15:27:55;5.87;;;2.70;;
23728;SDS011;12045;60.214;24.724;2023-01-06T15:30:28;2.67;;;1.70;;
23728;SDS011;12045;60.214;24.724;2023-01-06T15:33:02;3.90;;;2.00;;
23728;SDS011;12045;60.214;24.724;2023-01-06T15:35:30;5.03;;;2.10;;
23728;SDS011;12045;60.214;24.724;2023-01-06T15:38:04;6.03;;;2.20;;
23728;SDS011;12045;60.214;24.724;2023-01-06T15:40:32;4.67;;;2.17;;
23728;SDS011;12045;60.214;24.724;2023-01-06T15:43:00;6.27;;;2.20;;
23728;SDS011;12045;60.214;24.724;2023-01-06T15:45:29;3.37;;;1.80;;
23728;SDS011;12045;60.214;24.724;2023-01-06T15:48:07;5.80;;;2.00;;
23728;SDS011;12045;60.214;24.724;2023-01-06T15:50:36;3.00;;;1.23;;
23728;SDS011;12045;60.214;24.724;2023-01-06T15:53:04;3.53;;;1.70;;
23728;SDS011;12045;60.214;24.724;2023-01-06T15:55:34;3.13;;;1.80;;
23728;SDS011;12045;60.214;24.724;2023-01-06T15:58:06;3.63;;;1.90;;
23728;SDS011;12045;60.214;24.724;2023-01-06T16:00:58;4.10;;;2.10;;
23728;SDS011;12045;60.214;24.724;2023-01-06T16:03:23;3.97;;;2.00;;
23728;SDS011;12045;60.214;24.724;2023-01-06T16:06:01;2.90;;;2.00;;
23728;SDS011;12045;60.214;24.724;2023-01-06T16:08:37;4.67;;;1.97;;
23728;SDS011;12045;60.214;24.724;2023-01-06T16:13:36;3.50;;;1.77;;
23728;SDS011;12045;60.214;24.724;2023-01-06T16:16:25;5.33;;;2.27;;
23728;SDS011;12045;60.214;24.724;2023-01-06T16:18:55;6.67;;;2.13;;
23728;SDS011;12045;60.214;24.724;2023-01-06T16:21:24;3.57;;;1.87;;
23728;SDS011;12045;60.214;24.724;2023-01-06T16:23:57;4.70;;;2.10;;
23728;SDS011;12045;60.214;24.724;2023-01-06T16:26:29;3.87;;;1.90;;
23728;SDS011;12045;60.214;24.724;2023-01-06T16:28:58;3.00;;;1.77;;
23728;SDS011;12045;60.214;24.724;2023-01-06T16:31:33;4.37;;;1.90;;
23728;SDS011;12045;60.214;24.724;2023-01-06T16:34:15;4.07;;;2.23;;
23728;SDS011;12045;60.214;24.724;2023-01-06T16:36:44;6.43;;;2.30;;
23728;SDS011;12045;60.214;24.724;2023-01-06T16:39:11;3.50;;;1.97;;
23728;SDS011;12045;60.214;24.724;2023-01-06T16:44:57;4.20;;;2.03;;
23728;SDS011;12045;60.214;24.724;2023-01-06T16:47:26;4.67;;;2.00;;
23728;SDS011;12045;60.214;24.724;2023-01-06T16:49:54;3.43;;;2.20;;
23728;SDS011;12045;60.214;24.724;2023-01-06T16:52:23;3.97;;;1.90;;
23728;SDS011;12045;60.214;24.724;2023-01-06T16:54:52;4.20;;;1.90;;